Time;durP1;ratioP1;P1;durP2;ratioP2;P2;SDS_P1;SDS_P2;PMS_P1;PMS_P2;Temp;Humidity;BMP_temperature;BMP_pressure;BME280_temperature;BME280_humidity;BME280_pressure;Samples;Min_cycle;Max_cycle;Signal;HPM_P1;HPM_P2
2021/06/02 00:01:54;;;;;;;1.02;0.85;;;;;;;14.67;58.00;100980.72;3530956;40;20082;-57
2021/06/02 00:04:25;;;;;;;2.38;1.00;;;;;;;14.61;58.87;100982.38;3531959;40;20087;-52
2021/06/02 00:06:59;;;;;;;3.80;1.20;;;;;;;14.90;58.36;100986.19;3531817;40;20089;-57
2021/06/02 00:09:27;;;;;;;3.45;1.25;;;;;;;15.05;57.51;100989.81;3532204;40;20055;-55
2021/06/02 00:11:57;;;;;;;2.80;1.20;;;;;;;14.41;59.06;100980.31;3531820;40;20049;-52
2021/06/02 00:14:26;;;;;;;1.67;1.13;;;;;;;14.50;59.93;100987.34;3532216;40;20085;-50
2021/06/02 00:16:55;;;;;;;2.83;1.13;;;;;;;14.30;59.79;100984.47;3532068;40;20945;-52
2021/06/02 00:19:23;;;;;;;1.50;1.08;;;;;;;14.58;59.61;100985.75;3532092;40;20058;-56
2021/06/02 00:21:50;;;;;;;3.97;1.35;;;;;;;14.57;59.64;100989.19;3531975;40;20102;-56
2021/06/02 00:24:18;;;;;;;3.58;1.55;;;;;;;14.18;61.49;100986.84;3532139;40;20098;-55
2021/06/02 00:26:46;;;;;;;3.25;0.98;;;;;;;14.42;60.68;100979.50;3531688;40;20058;-52
2021/06/02 00:29:14;;;;;;;1.23;0.90;;;;;;;14.56;60.53;100983.97;3531978;40;20051;-55
2021/06/02 00:31:46;;;;;;;3.42;1.45;;;;;;;14.54;60.32;100980.53;3531813;40;20055;-55
2021/06/02 00:34:14;;;;;;;3.20;1.23;;;;;;;14.48;60.64;100987.34;3532111;40;20455;-51
2021/06/02 00:36:43;;;;;;;3.30;1.38;;;;;;;14.46;60.31;100991.56;3531786;40;20095;-54
2021/06/02 00:39:12;;;;;;;4.63;1.38;;;;;;;14.44;61.30;100987.25;3531942;40;20054;-51
2021/06/02 00:41:42;;;;;;;2.65;1.27;;;;;;;14.32;61.56;100993.06;3531886;40;20086;-57
2021/06/02 00:44:12;;;;;;;5.90;1.27;;;;;;;14.27;61.82;100992.13;3532205;40;20586;-55
2021/06/02 00:46:41;;;;;;;3.85;1.20;;;;;;;14.28;61.66;100991.28;3532167;40;20050;-56
2021/06/02 00:49:12;;;;;;;2.25;0.90;;;;;;;14.51;61.77;100989.97;3532108;40;20053;-54
2021/06/02 00:51:40;;;;;;;3.10;1.38;;;;;;;14.27;62.08;100999.84;3531911;40;20057;-56
2021/06/02 00:54:08;;;;;;;3.55;1.38;;;;;;;14.17;62.30;100998.84;3531998;40;20095;-52
2021/06/02 00:56:44;;;;;;;2.42;1.40;;;;;;;14.32;61.44;101005.06;3531924;40;20058;-54
2021/06/02 00:59:12;;;;;;;1.33;1.17;;;;;;;14.19;62.01;101001.44;3531885;40;20047;-53
2021/06/02 01:01:39;;;;;;;2.15;1.02;;;;;;;14.09;63.10;100997.84;3532185;40;20409;-55
2021/06/02 01:04:08;;;;;;;3.67;1.13;;;;;;;14.10;62.85;101006.47;3531800;40;20051;-54
2021/06/02 01:06:35;;;;;;;2.35;1.35;;;;;;;14.08;63.09;101005.56;3531679;40;20447;-55
2021/06/02 01:09:06;;;;;;;3.28;1.27;;;;;;;14.44;62.08;101015.59;3531982;40;20059;-54
2021/06/02 01:11:34;;;;;;;2.45;1.35;;;;;;;13.79;63.95;101017.94;3531856;40;20047;-53
2021/06/02 01:14:03;;;;;;;2.92;1.30;;;;;;;13.94;64.57;101011.34;3531711;40;20085;-50
2021/06/02 01:16:34;;;;;;;2.28;1.40;;;;;;;14.21;63.20;101008.34;3531337;40;20074;-53
2021/06/02 01:19:02;;;;;;;1.15;1.00;;;;;;;13.90;64.12;101009.56;3528796;40;20478;-53
2021/06/02 01:21:31;;;;;;;1.42;1.08;;;;;;;13.85;65.03;101013.75;3531869;40;20061;-54
2021/06/02 01:24:00;;;;;;;2.10;1.35;;;;;;;13.80;65.58;101006.81;3528622;40;20053;-54
2021/06/02 01:26:30;;;;;;;1.60;1.50;;;;;;;14.08;64.88;101013.28;3531630;40;20092;-55
2021/06/02 01:28:57;;;;;;;1.67;1.30;;;;;;;13.88;65.18;101016.41;3531532;40;20072;-53
2021/06/02 01:31:42;;;;;;;1.75;1.25;;;;;;;13.75;66.07;101017.00;3531764;40;20079;-52
2021/06/02 01:34:45;;;;;;;1.88;1.38;;;;;;;13.82;66.14;101013.72;3529697;40;20373;-52
2021/06/02 01:37:15;;;;;;;1.77;1.10;;;;;;;13.62;66.82;101018.50;3528939;40;20069;-52
2021/06/02 01:39:53;;;;;;;1.77;1.10;;;;;;;13.46;67.93;101007.06;3528166;40;20086;-55
2021/06/02 01:42:36;;;;;;;2.70;1.42;;;;;;;13.45;68.41;101004.44;3531597;40;20051;-51
2021/06/02 01:45:22;;;;;;;2.53;1.60;;;;;;;13.52;68.02;101010.59;3529236;40;20088;-51
2021/06/02 01:48:26;;;;;;;2.03;1.30;;;;;;;13.62;68.08;101013.34;3531044;40;20448;-50
2021/06/02 01:51:15;;;;;;;1.98;1.23;;;;;;;13.59;67.71;101018.47;3531317;40;20083;-54
2021/06/02 01:54:00;;;;;;;2.22;1.20;;;;;;;13.82;66.97;101020.56;3530518;40;20054;-56
2021/06/02 01:57:04;;;;;;;1.52;1.42;;;;;;;13.88;67.34;101018.97;3532430;40;20071;-53
2021/06/02 02:00:08;;;;;;;2.85;1.63;;;;;;;13.55;68.54;101026.09;3532177;40;20070;-52
2021/06/02 02:03:17;;;;;;;4.53;1.70;;;;;;;13.69;68.35;101022.94;3532272;40;20082;-50
2021/06/02 02:05:53;;;;;;;2.75;1.33;;;;;;;13.66;68.99;101040.00;3534795;40;20051;-52
2021/06/02 02:08:25;;;;;;;3.20;2.15;;;;;;;13.39;70.61;101042.91;3532583;40;20064;-53
2021/06/02 02:10:58;;;;;;;5.38;1.80;;;;;;;13.27;71.04;101040.97;3532257;40;20053;-51
2021/06/02 02:13:59;;;;;;;4.13;1.80;;;;;;;13.28;72.14;101035.00;3532896;40;20090;-51
2021/06/02 02:17:00;;;;;;;3.05;1.95;;;;;;;13.40;71.51;101042.06;3523742;40;20090;-55
2021/06/02 02:19:47;;;;;;;3.65;1.75;;;;;;;13.45;71.96;101049.06;3531414;40;20038;-51
2021/06/02 02:22:16;;;;;;;3.63;2.15;;;;;;;13.21;73.45;101045.94;3530560;40;20043;-53
2021/06/02 02:24:58;;;;;;;4.85;2.60;;;;;;;13.07;73.95;101044.78;3531615;40;20469;-50
2021/06/02 02:27:34;;;;;;;4.50;2.33;;;;;;;12.85;75.50;101044.34;3532511;40;20335;-49
2021/06/02 02:30:10;;;;;;;3.60;2.60;;;;;;;12.69;76.77;101048.25;3529987;40;20114;-53
2021/06/02 02:32:53;;;;;;;2.80;2.50;;;;;;;13.15;75.29;101050.97;3532700;40;20059;-52
2021/06/02 02:35:34;;;;;;;6.57;2.47;;;;;;;13.17;75.80;101046.72;3532657;40;20082;-52
2021/06/02 02:38:06;;;;;;;6.57;2.28;;;;;;;12.99;76.58;101049.78;3529932;40;20078;-49
2021/06/02 02:40:51;;;;;;;3.03;2.30;;;;;;;12.92;77.75;101047.91;3532654;40;20055;-52
2021/06/02 02:43:46;;;;;;;4.95;2.63;;;;;;;12.66;78.90;101049.88;3532521;40;20051;-52
2021/06/02 02:47:11;;;;;;;4.85;2.63;;;;;;;12.69;79.37;101044.81;3530670;40;20047;-49
2021/06/02 02:49:54;;;;;;;4.35;2.60;;;;;;;12.75;79.23;101056.09;3542058;40;20058;-49
2021/06/02 02:52:33;;;;;;;5.95;2.78;;;;;;;12.52;80.83;101058.97;3542068;40;20456;-54
2021/06/02 02:55:11;;;;;;;6.63;3.30;;;;;;;12.69;80.60;101050.84;3535431;40;20088;-55
2021/06/02 02:57:59;;;;;;;8.55;3.30;;;;;;;12.62;81.01;101050.69;3532423;40;20341;-51
2021/06/02 03:00:51;;;;;;;7.45;3.00;;;;;;;12.13;83.19;101057.19;3532514;40;20078;-52
2021/06/02 03:03:31;;;;;;;5.00;3.35;;;;;;;12.22;84.64;101063.41;3530926;40;20046;-54
2021/06/02 03:06:10;;;;;;;7.38;3.70;;;;;;;12.43;83.48;101059.63;3529392;40;20057;-54
2021/06/02 03:08:56;;;;;;;8.43;4.43;;;;;;;12.26;83.82;101068.63;3532283;40;20090;-53
2021/06/02 03:11:39;;;;;;;5.30;3.65;;;;;;;12.43;83.57;101067.31;3532237;40;20060;-53
2021/06/02 03:14:38;;;;;;;9.35;3.88;;;;;;;12.37;84.23;101068.06;3529892;40;20061;-52
2021/06/02 03:17:22;;;;;;;3.63;3.17;;;;;;;12.48;83.80;101081.19;3531375;40;20063;-52
2021/06/02 03:20:36;;;;;;;5.18;3.22;;;;;;;12.53;83.23;101074.44;3531863;40;20116;-51
2021/06/02 03:23:27;;;;;;;8.18;3.40;;;;;;;12.30;84.75;101070.47;3526580;40;20068;-52
2021/06/02 03:26:00;;;;;;;7.78;3.70;;;;;;;12.23;85.57;101075.41;3532006;40;20122;-53
2021/06/02 03:28:48;;;;;;;7.60;3.88;;;;;;;12.04;86.85;101068.09;3532359;40;20067;-51
2021/06/02 03:31:33;;;;;;;6.30;3.88;;;;;;;12.09;87.57;101079.34;3530457;40;20050;-51
2021/06/02 03:34:18;;;;;;;6.50;3.95;;;;;;;12.25;86.61;101083.19;3529317;40;20082;-52
2021/06/02 03:37:14;;;;;;;8.15;4.03;;;;;;;12.28;86.13;101080.66;3531048;40;20061;-54
2021/06/02 03:39:54;;;;;;;6.95;3.60;;;;;;;12.59;85.19;101084.84;3532175;40;20046;-54
2021/06/02 03:42:40;;;;;;;7.70;3.85;;;;;;;12.36;86.45;101091.13;3532155;40;20066;-55
2021/06/02 03:45:35;;;;;;;4.32;3.78;;;;;;;12.72;84.83;101091.16;3530104;40;20098;-56
2021/06/02 03:48:14;;;;;;;8.77;3.63;;;;;;;12.34;86.44;101098.81;3529648;40;20110;-55
2021/06/02 03:51:09;;;;;;;4.82;4.15;;;;;;;12.68;84.49;101089.34;3531967;40;20052;-55
2021/06/02 03:54:04;;;;;;;6.95;3.85;;;;;;;12.75;84.19;101091.22;3532026;40;20070;-50
2021/06/02 03:56:49;;;;;;;5.95;3.85;;;;;;;12.74;84.71;101092.06;3531951;40;20080;-51
2021/06/02 03:59:29;;;;;;;7.07;4.28;;;;;;;12.39;86.95;101097.22;3530279;40;20035;-51
2021/06/02 04:02:02;;;;;;;7.43;4.18;;;;;;;12.22;87.76;101094.22;3532048;40;20056;-55
2021/06/02 04:04:38;;;;;;;8.93;4.97;;;;;;;12.44;86.88;101102.47;3532076;40;20058;-52
2021/06/02 04:07:07;;;;;;;8.75;5.00;;;;;;;12.58;85.87;101103.69;3529716;40;20062;-52
2021/06/02 04:10:01;;;;;;;7.38;4.47;;;;;;;12.90;84.73;101096.72;3532018;40;20063;-54
2021/06/02 04:12:40;;;;;;;5.88;4.38;;;;;;;12.29;86.92;101095.25;3531514;40;20055;-51
2021/06/02 04:15:08;;;;;;;7.80;4.70;;;;;;;12.59;86.23;101095.13;3530078;40;20351;-51
2021/06/02 04:17:37;;;;;;;7.50;4.38;;;;;;;12.53;86.50;101101.84;3531758;40;20055;-51
2021/06/02 04:20:06;;;;;;;6.72;4.60;;;;;;;12.57;86.31;101098.47;3532008;40;20610;-51
2021/06/02 04:22:36;;;;;;;7.88;4.50;;;;;;;12.56;86.58;101099.31;3527792;40;20106;-53
2021/06/02 04:25:04;;;;;;;7.57;4.00;;;;;;;12.60;86.52;101096.00;3530886;40;20066;-51
2021/06/02 04:27:34;;;;;;;6.68;4.43;;;;;;;12.75;85.54;101104.94;3530542;40;20151;-55
2021/06/02 04:30:06;;;;;;;9.05;4.97;;;;;;;12.77;86.18;101101.56;3529711;40;20086;-54
2021/06/02 04:32:41;;;;;;;8.20;4.75;;;;;;;12.31;87.43;101109.00;3531980;40;20046;-51
2021/06/02 04:35:11;;;;;;;9.52;4.80;;;;;;;12.60;86.85;101106.28;3531109;40;20086;-52
2021/06/02 04:37:38;;;;;;;6.72;4.07;;;;;;;12.75;85.55;101111.78;3530159;40;20053;-52
2021/06/02 04:40:08;;;;;;;4.82;3.92;;;;;;;12.83;85.42;101104.25;3529208;40;20071;-54
2021/06/02 04:42:40;;;;;;;11.20;5.03;;;;;;;12.81;86.19;101111.06;3527652;40;20118;-52
2021/06/02 04:45:23;;;;;;;9.70;4.13;;;;;;;13.15;84.21;101108.41;3530415;40;20096;-55
2021/06/02 04:47:50;;;;;;;10.15;4.88;;;;;;;12.54;86.41;101111.28;3529960;40;20053;-53
2021/06/02 04:50:23;;;;;;;8.25;4.07;;;;;;;13.04;85.03;101106.47;3531498;40;20065;-52
2021/06/02 04:53:13;;;;;;;7.15;4.03;;;;;;;12.85;85.89;101102.56;3531726;40;20055;-54
2021/06/02 04:55:50;;;;;;;8.05;4.15;;;;;;;13.02;85.26;101106.41;3535511;40;20047;-54
2021/06/02 04:58:35;;;;;;;7.25;4.28;;;;;;;13.03;85.43;101108.13;3531598;40;20051;-52
2021/06/02 05:01:27;;;;;;;6.20;4.35;;;;;;;13.06;85.45;101104.78;3529301;40;20119;-55
2021/06/02 05:04:32;;;;;;;7.57;4.50;;;;;;;12.74;86.53;101107.47;3531158;40;20110;-56
2021/06/02 05:07:04;;;;;;;10.30;4.70;;;;;;;12.71;86.92;101107.38;3528285;40;20648;-53
2021/06/02 05:09:56;;;;;;;9.10;4.05;;;;;;;12.68;87.43;101110.78;3531428;40;20078;-51
2021/06/02 05:13:01;;;;;;;6.32;4.28;;;;;;;12.97;87.04;101108.00;3527780;40;20090;-53
2021/06/02 05:15:46;;;;;;;9.93;4.78;;;;;;;12.67;87.52;101115.88;3530492;40;20057;-54
2021/06/02 05:18:52;;;;;;;7.18;4.85;;;;;;;12.74;87.27;101115.19;3529553;40;20059;-56
2021/06/02 05:24:52;;;;;;;7.40;4.55;;;;;;;12.81;86.77;101116.22;3530620;40;20813;-50
2021/06/02 05:28:16;;;;;;;7.18;4.00;;;;;;;13.29;85.20;101124.19;3529943;40;20467;-53
2021/06/02 05:31:20;;;;;;;6.70;4.68;;;;;;;13.30;85.48;101119.91;3530500;40;20464;-54
2021/06/02 05:34:38;;;;;;;6.00;4.30;;;;;;;13.68;83.18;101128.41;3529690;40;20055;-55
2021/06/02 05:37:14;;;;;;;7.38;4.00;;;;;;;14.00;82.07;101129.03;3528615;40;20063;-51
2021/06/02 05:39:56;;;;;;;11.70;4.63;;;;;;;14.30;80.55;101128.72;3526828;40;20182;-54
2021/06/02 05:42:51;;;;;;;8.55;4.15;;;;;;;14.08;80.97;101129.16;3527442;40;20059;-51
2021/06/02 05:45:55;;;;;;;9.15;4.60;;;;;;;13.93;81.54;101142.63;3527282;40;20451;-55
2021/06/02 05:49:14;;;;;;;8.80;5.00;;;;;;;13.90;81.98;101143.44;3527438;40;20050;-53
2021/06/02 05:51:56;;;;;;;6.43;4.07;;;;;;;14.37;81.46;101142.56;3532243;40;20055;-50
2021/06/02 05:54:43;;;;;;;7.50;4.30;;;;;;;14.46;80.87;101141.00;3527638;40;20109;-52
2021/06/02 05:57:40;;;;;;;7.00;4.35;;;;;;;14.37;79.59;101140.84;3528010;40;20082;-57
2021/06/02 06:00:49;;;;;;;7.03;4.40;;;;;;;14.42;80.74;101144.41;3527589;40;20063;-52
2021/06/02 06:03:50;;;;;;;8.68;4.50;;;;;;;14.14;81.16;101144.72;3526398;40;20191;-55
2021/06/02 06:06:54;;;;;;;9.15;5.45;;;;;;;14.21;80.86;101141.44;3527205;40;20608;-52
2021/06/02 06:09:40;;;;;;;7.65;4.70;;;;;;;14.86;79.47;101146.84;3528562;40;20050;-53
2021/06/02 06:12:26;;;;;;;8.15;4.60;;;;;;;15.36;77.27;101143.28;3528278;40;20094;-53
2021/06/02 06:15:12;;;;;;;;;;;;;;;15.73;76.22;101149.81;3530701;40;20321;-53
2021/06/02 06:17:41;;;;;;;6.22;4.32;;;;;;;15.67;75.29;101149.75;3530212;40;19935;-56
2021/06/02 06:20:33;;;;;;;8.10;4.68;;;;;;;15.63;74.59;101153.09;3529999;40;20043;-52
2021/06/02 06:23:29;;;;;;;6.95;4.88;;;;;;;16.19;73.28;101148.59;3526189;40;20061;-53
2021/06/02 06:26:16;;;;;;;6.43;4.27;;;;;;;16.02;73.09;101147.53;3530012;40;20050;-53
2021/06/02 06:29:25;;;;;;;8.00;5.22;;;;;;;16.06;72.55;101141.56;3530295;40;20278;-52
2021/06/02 06:31:53;;;;;;;7.43;4.85;;;;;;;16.33;72.18;101145.28;3545756;40;20443;-51
2021/06/02 06:34:24;;;;;;;6.75;4.90;;;;;;;16.30;71.31;101146.09;3530542;40;20055;-51
2021/06/02 06:36:55;;;;;;;7.15;4.45;;;;;;;16.73;69.99;101144.81;3530379;40;20065;-52
2021/06/02 06:39:56;;;;;;;9.43;4.85;;;;;;;16.63;69.76;101142.06;3529963;40;20118;-54
2021/06/02 06:42:27;;;;;;;6.60;4.53;;;;;;;16.56;69.97;101148.94;3528664;40;20039;-53
2021/06/02 06:45:16;;;;;;;7.88;4.93;;;;;;;16.97;68.29;101141.53;3531792;40;20784;-54
2021/06/02 06:47:46;;;;;;;6.70;4.88;;;;;;;16.94;69.16;101144.06;3532493;40;20047;-51
2021/06/02 06:50:15;;;;;;;6.30;4.65;;;;;;;17.30;67.79;101152.94;3532373;40;20441;-54
2021/06/02 06:52:44;;;;;;;7.55;4.53;;;;;;;17.53;66.17;101146.13;3532660;40;20065;-55
2021/06/02 06:55:12;;;;;;;6.78;4.38;;;;;;;17.35;66.98;101150.38;3532487;40;20051;-53
2021/06/02 06:57:40;;;;;;;5.70;4.63;;;;;;;17.69;64.98;101146.19;3531138;40;20051;-56
2021/06/02 07:00:09;;;;;;;8.77;5.20;;;;;;;18.04;64.67;101143.75;3527394;40;20422;-54
2021/06/02 07:02:43;;;;;;;7.55;4.60;;;;;;;18.26;63.84;101142.06;3522447;40;20090;-50
2021/06/02 07:05:12;;;;;;;8.13;4.60;;;;;;;18.21;64.66;101136.88;3531618;40;20082;-54
2021/06/02 07:07:42;;;;;;;8.60;4.85;;;;;;;18.28;63.82;101143.78;3531910;40;20053;-50
2021/06/02 07:10:11;;;;;;;6.50;4.63;;;;;;;18.49;63.24;101148.16;3531847;40;20097;-53
2021/06/02 07:12:40;;;;;;;8.18;4.93;;;;;;;18.92;62.61;101155.94;3531783;40;20063;-55
2021/06/02 07:15:09;;;;;;;9.13;4.90;;;;;;;18.80;61.05;101159.41;3531634;40;20056;-53
2021/06/02 07:17:43;;;;;;;8.82;4.68;;;;;;;19.18;61.08;101165.41;3532276;40;20061;-53
2021/06/02 07:20:12;;;;;;;8.85;5.00;;;;;;;19.25;60.57;101174.91;3532198;40;20251;-51
2021/06/02 07:22:50;;;;;;;9.63;4.95;;;;;;;19.29;59.23;101174.03;3531192;40;20161;-51
2021/06/02 07:25:20;;;;;;;10.55;5.18;;;;;;;19.42;60.18;101170.56;3528217;40;20165;-50
2021/06/02 07:27:49;;;;;;;9.45;5.60;;;;;;;19.11;59.67;101174.09;3529886;40;20056;-51
2021/06/02 07:30:18;;;;;;;6.75;5.18;;;;;;;19.66;58.46;101174.81;3531056;40;20055;-51
2021/06/02 07:32:45;;;;;;;8.85;5.90;;;;;;;19.87;57.54;101175.59;3531543;40;20059;-51
2021/06/02 07:35:13;;;;;;;8.98;5.88;;;;;;;20.12;56.32;101182.41;3530048;40;20059;-53
2021/06/02 07:37:40;;;;;;;8.63;5.47;;;;;;;20.20;55.93;101170.22;3530964;40;20086;-51
2021/06/02 07:40:08;;;;;;;9.25;5.70;;;;;;;20.29;56.33;101177.06;3528702;40;20804;-54
2021/06/02 07:42:35;;;;;;;10.32;5.45;;;;;;;20.28;55.42;101181.41;3519538;40;20457;-54
2021/06/02 07:45:05;;;;;;;9.32;6.28;;;;;;;19.97;56.38;101179.91;3528471;40;20062;-54
2021/06/02 07:47:31;;;;;;;10.32;5.57;;;;;;;20.06;57.22;101175.50;3528255;40;20059;-51
2021/06/02 07:49:59;;;;;;;11.35;5.32;;;;;;;19.61;58.99;101170.53;3526191;40;20085;-55
2021/06/02 07:52:26;;;;;;;7.18;5.40;;;;;;;20.46;56.91;101172.63;3528339;40;20106;-52
2021/06/02 07:54:55;;;;;;;10.00;5.45;;;;;;;20.31;55.23;101181.41;3528718;40;20046;-53
2021/06/02 07:57:22;;;;;;;11.15;5.03;;;;;;;19.99;57.45;101186.78;3527583;40;20088;-51
2021/06/02 07:59:49;;;;;;;6.45;5.20;;;;;;;20.38;55.12;101186.56;3529158;40;20070;-50
2021/06/02 08:02:16;;;;;;;14.23;5.43;;;;;;;20.67;54.18;101184.66;3527761;40;20066;-54
2021/06/02 08:04:43;;;;;;;10.63;5.28;;;;;;;20.88;53.44;101186.19;3528277;40;20055;-52
2021/06/02 08:07:10;;;;;;;8.18;5.20;;;;;;;20.64;55.57;101183.81;3527762;40;20459;-54
2021/06/02 08:09:37;;;;;;;6.32;5.20;;;;;;;21.32;52.46;101184.94;3528615;40;20063;-53
2021/06/02 08:12:06;;;;;;;9.75;5.05;;;;;;;20.71;54.76;101185.50;3528879;40;20070;-56
2021/06/02 08:14:34;;;;;;;8.05;4.72;;;;;;;20.93;53.58;101178.34;3527838;40;20159;-54
2021/06/02 08:17:01;;;;;;;6.85;4.88;;;;;;;22.13;50.32;101191.78;3528867;40;20082;-56
2021/06/02 08:19:28;;;;;;;11.85;5.22;;;;;;;22.05;49.03;101189.25;3527295;40;20054;-54
2021/06/02 08:21:56;;;;;;;6.28;5.07;;;;;;;21.94;50.81;101193.75;3528903;40;20651;-54
2021/06/02 08:24:24;;;;;;;7.10;4.57;;;;;;;21.15;50.79;101181.63;3527302;40;20739;-55
2021/06/02 08:26:53;;;;;;;9.05;4.95;;;;;;;20.95;52.18;101185.28;3531121;40;20063;-53
2021/06/02 08:29:20;;;;;;;6.35;4.25;;;;;;;21.46;51.64;101177.84;3531467;40;20058;-51
2021/06/02 08:31:47;;;;;;;8.95;5.65;;;;;;;21.04;53.19;101187.78;3525904;40;20039;-51
2021/06/02 08:34:14;;;;;;;8.00;5.38;;;;;;;20.87;53.19;101175.81;3528246;40;20073;-51
2021/06/02 08:36:41;;;;;;;8.32;5.38;;;;;;;21.02;53.56;101180.88;3527579;40;20080;-55
2021/06/02 08:39:08;;;;;;;7.45;5.20;;;;;;;21.16;52.59;101185.94;3527389;40;20241;-55
2021/06/02 08:41:39;;;;;;;9.15;5.25;;;;;;;21.02;53.38;101184.31;3528264;40;20059;-53
2021/06/02 08:44:09;;;;;;;12.13;5.97;;;;;;;21.22;55.09;101185.91;3527410;40;20054;-53
2021/06/02 08:46:39;;;;;;;6.20;5.13;;;;;;;20.89;53.96;101185.34;3527133;40;20058;-54
2021/06/02 08:49:10;;;;;;;7.43;5.30;;;;;;;20.91;53.74;101180.97;3527617;40;20080;-52
2021/06/02 08:51:38;;;;;;;5.75;4.70;;;;;;;21.42;53.63;101175.28;3528451;40;20054;-51
2021/06/02 08:54:05;;;;;;;5.10;4.40;;;;;;;21.58;52.85;101185.53;3527855;40;20058;-53
2021/06/02 08:56:41;;;;;;;7.35;4.82;;;;;;;21.14;51.96;101178.16;3526317;40;20781;-51
2021/06/02 08:59:08;;;;;;;7.22;4.65;;;;;;;21.16;52.63;101176.38;3526614;40;20087;-53
2021/06/02 09:01:35;;;;;;;6.03;4.47;;;;;;;21.41;52.85;101174.44;3528093;40;20091;-54
2021/06/02 09:04:07;;;;;;;7.18;4.40;;;;;;;21.68;52.44;101178.44;3526143;40;20086;-50
2021/06/02 09:06:41;;;;;;;5.53;4.70;;;;;;;21.75;51.97;101174.00;3527956;40;20079;-50
2021/06/02 09:09:11;;;;;;;9.30;5.22;;;;;;;21.90;50.77;101178.16;3528011;40;20054;-55
2021/06/02 09:11:40;;;;;;;9.77;5.40;;;;;;;21.78;52.02;101180.06;3528037;40;20055;-53
2021/06/02 09:14:24;;;;;;;7.13;4.93;;;;;;;22.31;51.03;101178.47;3528794;40;20070;-54
2021/06/02 09:16:55;;;;;;;7.45;4.60;;;;;;;22.31;49.58;101175.00;3530890;40;20062;-53
2021/06/02 09:19:40;;;;;;;8.95;4.72;;;;;;;22.25;49.70;101173.34;3529787;40;20095;-57
2021/06/02 09:22:10;;;;;;;6.65;5.30;;;;;;;22.83;47.83;101181.97;3527806;40;20059;-50
2021/06/02 09:25:04;;;;;;;7.68;5.00;;;;;;;22.76;49.12;101178.63;3531008;40;20097;-55
2021/06/02 09:27:57;;;;;;;8.73;4.57;;;;;;;22.72;48.07;101181.31;3526720;40;20050;-55
2021/06/02 09:30:38;;;;;;;8.00;5.05;;;;;;;23.44;47.56;101172.22;3528079;40;20045;-54
2021/06/02 09:33:05;;;;;;;6.90;4.28;;;;;;;23.63;45.99;101176.16;3527593;40;20047;-53
2021/06/02 09:35:43;;;;;;;4.90;4.40;;;;;;;24.44;42.85;101184.03;3530487;40;20070;-56
2021/06/02 09:38:24;;;;;;;4.75;4.35;;;;;;;24.52;42.21;101180.31;3529277;40;20055;-56
2021/06/02 09:40:56;;;;;;;6.93;4.80;;;;;;;24.58;43.24;101187.16;3529581;40;20314;-55
2021/06/02 09:43:36;;;;;;;5.18;4.68;;;;;;;23.13;45.61;101183.25;3530701;40;20059;-57
2021/06/02 09:46:16;;;;;;;7.70;4.97;;;;;;;24.93;42.71;101190.66;3527111;40;20050;-51
2021/06/02 09:49:00;;;;;;;7.50;5.00;;;;;;;25.35;41.39;101191.31;3529930;40;20058;-56
2021/06/02 09:51:39;;;;;;;5.75;5.25;;;;;;;24.35;42.55;101178.06;3528895;40;20065;-56
2021/06/02 09:54:09;;;;;;;6.32;4.60;;;;;;;24.82;42.57;101175.22;3529375;40;20402;-55
2021/06/02 09:56:42;;;;;;;5.65;4.38;;;;;;;24.80;41.80;101185.75;3529397;40;20070;-55
2021/06/02 09:59:11;;;;;;;7.20;4.72;;;;;;;25.69;39.80;101190.34;3528497;40;20047;-53
2021/06/02 10:01:59;;;;;;;4.97;4.40;;;;;;;25.35;39.75;101186.94;3529827;40;20054;-50
2021/06/02 10:04:32;;;;;;;5.40;4.53;;;;;;;25.61;38.29;101185.34;3529336;40;20363;-52
2021/06/02 10:07:01;;;;;;;6.40;5.22;;;;;;;25.22;41.32;101185.53;3528602;40;20090;-51
2021/06/02 10:09:33;;;;;;;6.57;4.25;;;;;;;27.96;35.08;101181.84;3530869;40;20059;-53
2021/06/02 10:12:07;;;;;;;4.90;4.50;;;;;;;27.27;36.29;101189.69;3527121;40;20079;-51
2021/06/02 10:14:55;;;;;;;;;;;;;;;28.40;34.29;101193.31;3531701;40;20062;-51
2021/06/02 10:17:27;;;;;;;5.03;4.60;;;;;;;29.68;32.75;101192.22;3529053;40;20342;-50
2021/06/02 10:19:57;;;;;;;5.13;4.20;;;;;;;31.09;30.40;101203.84;3532209;40;20055;-50
2021/06/02 10:22:27;;;;;;;4.45;4.05;;;;;;;30.99;31.29;101201.75;3532208;40;20043;-52
2021/06/02 10:24:59;;;;;;;6.45;3.90;;;;;;;34.63;24.40;101215.69;3529234;40;20051;-52
2021/06/02 10:27:26;;;;;;;6.75;4.20;;;;;;;32.51;26.48;101207.66;3532162;40;20328;-56
2021/06/02 10:29:54;;;;;;;5.35;4.10;;;;;;;32.16;26.51;101211.31;3532176;40;20094;-51
2021/06/02 10:32:22;;;;;;;10.57;4.22;;;;;;;33.54;25.57;101210.31;3528035;40;20117;-54
2021/06/02 10:34:53;;;;;;;5.82;4.57;;;;;;;31.34;28.02;101205.25;3529041;40;20039;-51
2021/06/02 10:37:23;;;;;;;5.03;3.65;;;;;;;30.45;27.98;101209.72;3529790;40;20065;-52
2021/06/02 10:39:56;;;;;;;5.15;4.00;;;;;;;27.30;33.82;101193.97;3523287;40;20089;-55
2021/06/02 10:42:29;;;;;;;4.53;4.07;;;;;;;27.08;33.82;101204.34;3530367;40;20047;-54
2021/06/02 10:45:29;;;;;;;4.78;4.10;;;;;;;27.58;33.78;101202.56;3532522;40;20062;-53
2021/06/02 10:48:00;;;;;;;4.93;4.07;;;;;;;26.55;35.73;101205.25;3531031;40;20047;-52
2021/06/02 10:50:34;;;;;;;5.80;4.50;;;;;;;26.51;36.23;101203.63;3528262;40;20059;-53
2021/06/02 10:53:22;;;;;;;4.90;4.40;;;;;;;25.80;37.23;101204.91;3529274;40;20051;-52
2021/06/02 10:55:51;;;;;;;4.60;4.15;;;;;;;25.59;37.61;101202.88;3528748;40;20047;-53
2021/06/02 10:58:22;;;;;;;6.18;4.10;;;;;;;25.95;37.01;101203.59;3529205;40;20741;-50
2021/06/02 11:01:09;;;;;;;5.15;4.20;;;;;;;27.14;36.08;101206.81;3528912;40;20336;-54
2021/06/02 11:03:39;;;;;;;4.25;3.85;;;;;;;25.97;36.49;101206.16;3528713;40;20092;-52
2021/06/02 11:06:14;;;;;;;4.53;4.13;;;;;;;27.20;35.70;101201.31;3530254;40;20051;-54
2021/06/02 11:08:47;;;;;;;4.53;4.15;;;;;;;27.19;33.96;101201.38;3531745;40;20059;-50
2021/06/02 11:11:30;;;;;;;4.35;3.95;;;;;;;27.09;36.11;101198.22;3531589;40;20058;-54
2021/06/02 11:14:16;;;;;;;6.97;4.07;;;;;;;27.14;33.34;101198.94;3531220;40;20122;-51
2021/06/02 11:16:56;;;;;;;5.30;3.95;;;;;;;27.56;33.48;101201.78;3531495;40;20047;-54
2021/06/02 11:19:25;;;;;;;5.45;3.70;;;;;;;30.62;28.85;101212.38;3531320;40;20050;-52
2021/06/02 11:21:52;;;;;;;6.95;3.88;;;;;;;30.16;29.44;101205.84;3522479;40;20091;-50
2021/06/02 11:24:36;;;;;;;4.78;4.20;;;;;;;29.87;29.21;101202.78;3532172;40;20055;-52
2021/06/02 11:27:12;;;;;;;5.40;3.60;;;;;;;28.54;31.80;101205.91;3528479;40;20050;-51
2021/06/02 11:29:48;;;;;;;5.88;3.90;;;;;;;27.36;33.41;101206.88;3531930;40;20054;-50
2021/06/02 11:32:24;;;;;;;4.40;3.95;;;;;;;26.57;34.47;101205.19;3532241;40;20045;-57
2021/06/02 11:34:54;;;;;;;4.30;3.90;;;;;;;26.14;34.71;101214.41;3532252;40;20413;-56
2021/06/02 11:37:28;;;;;;;4.57;4.18;;;;;;;25.08;37.34;101206.88;3531979;40;20062;-55
2021/06/02 11:40:00;;;;;;;3.88;3.47;;;;;;;25.47;36.80;101208.44;3531097;40;20042;-54
2021/06/02 11:42:47;;;;;;;6.15;4.25;;;;;;;25.33;37.70;101209.72;3531793;40;20092;-54
2021/06/02 11:45:21;;;;;;;8.50;4.00;;;;;;;24.39;38.98;101205.06;3529124;40;20449;-52
2021/06/02 11:47:50;;;;;;;4.18;3.70;;;;;;;24.63;38.92;101203.63;3531621;40;20526;-53
2021/06/02 11:50:19;;;;;;;6.80;4.32;;;;;;;24.70;39.76;101207.84;3531620;40;20068;-54
2021/06/02 11:53:01;;;;;;;5.25;3.60;;;;;;;25.01;38.71;101199.19;3532140;40;20057;-52
2021/06/02 11:55:30;;;;;;;5.22;3.65;;;;;;;24.65;37.00;101204.47;3532541;40;20077;-57
2021/06/02 11:57:58;;;;;;;5.63;4.30;;;;;;;24.18;38.80;101206.41;3532588;40;20055;-54
2021/06/02 12:00:28;;;;;;;8.40;3.53;;;;;;;24.38;38.84;101203.34;3532537;40;20433;-54
2021/06/02 12:02:58;;;;;;;4.70;3.60;;;;;;;24.78;39.37;101205.03;3529982;40;20046;-57
2021/06/02 12:05:37;;;;;;;4.38;3.55;;;;;;;25.02;37.34;101209.63;3527854;40;20211;-56
2021/06/02 12:08:06;;;;;;;5.97;3.85;;;;;;;25.17;37.93;101207.53;3527639;40;20098;-54
2021/06/02 12:10:47;;;;;;;4.55;3.50;;;;;;;25.34;35.85;101208.81;3528405;40;20059;-54
2021/06/02 12:13:31;;;;;;;5.88;4.07;;;;;;;25.66;35.14;101204.44;3527988;40;20062;-55
2021/06/02 12:16:01;;;;;;;5.18;3.33;;;;;;;25.17;36.06;101210.16;3528492;40;20106;-54